Orbital elements of FENGYUN 1C DEB
| Launched | 9 May 1999 |
| Flight ended | – |
| Launch site | Taiyuan Space Center, PRC |
| Owner | People's Republic of China |
| NORAD ID | 30217 |
| Date fetched |
Epoch osculation |
Inc. [°] |
Ecc. | RA asc node [hr] |
Arg Peri. [°] |
Mean anom [°] |
Mean motion [rev/day] |
Abs. mag |
| Date fetched |
Epoch osculation |
Inc. [°] |
Ecc. | RA asc node [hr] |
Arg Peri. [°] |
Mean anom [°] |
Mean motion [rev/day] |
Abs. mag |
| 2026 May 05 17:57 | 2026 May 05 09:19:36 | 98.4480 | 0.01401 | 7.2479 | 39.7244 | 321.4098 | 14.25076 | – |
| 2026 May 04 17:57 | 2026 Apr 30 11:22:18 | 98.4476 | 0.01403 | 6.9323 | 53.9799 | 321.4098 | 14.25076 | – |
| 2026 May 03 17:57 | 2026 Apr 30 11:22:18 | 98.4476 | 0.01403 | 6.9323 | 53.9799 | 321.4098 | 14.25076 | – |
| 2026 May 02 17:57 | 2026 Apr 30 11:22:18 | 98.4476 | 0.01403 | 6.9323 | 53.9799 | 321.4098 | 14.25076 | – |
| 2026 May 01 17:56 | 2026 Apr 30 11:22:18 | 98.4476 | 0.01403 | 6.9323 | 53.9799 | 321.4098 | 14.25076 | – |
| 2026 Apr 30 17:56 | 2026 Apr 30 11:22:18 | 98.4476 | 0.01403 | 6.9323 | 53.9799 | 321.4098 | 14.25076 | – |
| 2026 Apr 29 17:57 | 2026 Apr 24 05:23:57 | 98.4475 | 0.01405 | 6.5310 | 72.1283 | 321.4098 | 14.25076 | – |
| 2026 Apr 28 17:56 | 2026 Apr 24 05:23:57 | 98.4475 | 0.01405 | 6.5310 | 72.1283 | 321.4098 | 14.25076 | – |
| 2026 Apr 27 17:58 | 2026 Apr 24 05:23:57 | 98.4475 | 0.01405 | 6.5310 | 72.1283 | 321.4098 | 14.25076 | – |
| 2026 Apr 26 17:58 | 2026 Apr 24 05:23:57 | 98.4475 | 0.01405 | 6.5310 | 72.1283 | 321.4098 | 14.25076 | – |
| 2026 Apr 25 17:58 | 2026 Apr 24 05:23:57 | 98.4475 | 0.01405 | 6.5310 | 72.1283 | 321.4098 | 14.25076 | – |
| 2026 Apr 24 17:59 | 2026 Apr 24 05:23:57 | 98.4475 | 0.01405 | 6.5310 | 72.1283 | 321.4098 | 14.25076 | – |
| 2026 Apr 23 17:57 | 2026 Apr 19 05:45:24 | 98.4472 | 0.01405 | 6.2109 | 86.5877 | 321.4098 | 14.25076 | – |
| 2026 Apr 22 17:57 | 2026 Apr 19 05:45:24 | 98.4472 | 0.01405 | 6.2109 | 86.5877 | 321.4098 | 14.25076 | – |
| 2026 Apr 21 17:57 | 2026 Apr 19 05:45:24 | 98.4472 | 0.01405 | 6.2109 | 86.5877 | 321.4098 | 14.25076 | – |
| 2026 Apr 20 17:57 | 2026 Apr 19 05:45:24 | 98.4472 | 0.01405 | 6.2109 | 86.5877 | 321.4098 | 14.25076 | – |
| 2026 Apr 19 17:58 | 2026 Apr 19 05:45:24 | 98.4472 | 0.01405 | 6.2109 | 86.5877 | 321.4098 | 14.25076 | – |
| 2026 Apr 18 17:56 | 2026 Apr 12 22:05:46 | 98.4466 | 0.01405 | 5.8052 | 104.9277 | 321.4098 | 14.25076 | – |
| 2026 Apr 16 17:57 | 2026 Apr 12 22:05:46 | 98.4466 | 0.01405 | 5.8052 | 104.9277 | 321.4098 | 14.25076 | – |
| 2026 Apr 14 17:57 | 2026 Apr 12 22:05:46 | 98.4466 | 0.01405 | 5.8052 | 104.9277 | 321.4098 | 14.25076 | – |
| 2026 Apr 13 17:57 | 2026 Apr 12 22:05:46 | 98.4466 | 0.01405 | 5.8052 | 104.9277 | 321.4098 | 14.25076 | – |
| 2026 Apr 12 17:57 | 2026 Apr 08 10:14:53 | 98.4464 | 0.01403 | 5.5167 | 117.9744 | 321.4098 | 14.25076 | – |
| 2026 Apr 11 17:57 | 2026 Apr 08 10:14:53 | 98.4464 | 0.01403 | 5.5167 | 117.9744 | 321.4098 | 14.25076 | – |
| 2026 Apr 10 17:58 | 2026 Apr 08 10:14:53 | 98.4464 | 0.01403 | 5.5167 | 117.9744 | 321.4098 | 14.25076 | – |
| 2026 Apr 09 18:01 | 2026 Apr 08 10:14:53 | 98.4464 | 0.01403 | 5.5167 | 117.9744 | 321.4098 | 14.25076 | – |
| 2026 Apr 08 17:57 | 2026 Apr 08 10:14:53 | 98.4464 | 0.01403 | 5.5167 | 117.9744 | 321.4098 | 14.25076 | – |